Time;durP1;ratioP1;P1;durP2;ratioP2;P2;SDS_P1;SDS_P2;PMS_P1;PMS_P2;Temp;Humidity;BMP_temperature;BMP_pressure;BME280_temperature;BME280_humidity;BME280_pressure;Samples;Min_cycle;Max_cycle;Signal;HPM_P1;HPM_P2
2022/11/18 00:01:17;;;;;;;5.40;3.10;;;4.70;99.90;;;;;;5010759;28;20049;-48
2022/11/18 00:03:44;;;;;;;4.88;2.30;;;4.80;99.90;;;;;;5013466;28;20096;-47
2022/11/18 00:06:15;;;;;;;6.25;2.05;;;4.80;99.90;;;;;;5012533;28;20042;-48
2022/11/18 00:08:42;;;;;;;5.20;2.70;;;4.80;99.90;;;;;;5014399;28;20034;-47
2022/11/18 00:14:17;;;;;;;6.47;3.83;;;4.70;99.90;;;;;;5012611;28;20085;-47
2022/11/18 00:14:21;;;;;;;9.15;4.63;;;4.70;99.90;;;;;;5013214;28;20108;-48
2022/11/18 00:17:01;;;;;;;7.57;4.10;;;4.70;99.90;;;;;;5012210;28;20618;-47
2022/11/18 00:19:32;;;;;;;11.68;4.60;;;4.70;99.90;;;;;;5013178;28;20076;-47
2022/11/18 00:22:00;;;;;;;10.18;4.57;;;4.80;99.90;;;;;;5012295;28;20050;-48
2022/11/18 00:24:27;;;;;;;9.75;4.97;;;4.90;99.90;;;;;;5013673;28;20037;-47
2022/11/18 00:26:54;;;;;;;;;;;4.90;99.90;;;;;;5021489;28;20038;-48
2022/11/18 00:29:22;;;;;;;7.25;4.20;;;4.90;99.90;;;;;;5018116;28;19921;-47
2022/11/18 00:31:48;;;;;;;7.72;4.65;;;4.90;99.90;;;;;;5033717;28;20053;-47
2022/11/18 00:34:17;;;;;;;16.60;5.82;;;4.90;99.90;;;;;;5016547;28;20074;-47
2022/11/18 00:36:44;;;;;;;12.98;4.70;;;4.90;99.90;;;;;;5013554;28;20466;-47
2022/11/18 00:39:13;;;;;;;8.82;5.57;;;4.90;99.90;;;;;;5013018;28;20049;-51
2022/11/18 00:44:26;;;;;;;7.85;4.55;;;5.10;99.90;;;;;;5026399;28;20103;-49
2022/11/18 00:46:53;;;;;;;7.78;4.47;;;5.10;99.90;;;;;;5033740;28;20048;-48
2022/11/18 00:49:19;;;;;;;6.93;4.32;;;5.10;99.90;;;;;;5015324;28;20038;-48
2022/11/18 00:51:46;;;;;;;9.23;4.75;;;5.20;99.90;;;;;;5013175;28;20338;-50
2022/11/18 00:54:13;;;;;;;7.88;4.43;;;5.20;99.90;;;;;;5013431;28;20042;-48
2022/11/18 00:56:40;;;;;;;7.47;4.18;;;5.20;99.90;;;;;;5012457;28;20092;-47
2022/11/18 00:59:06;;;;;;;8.40;4.00;;;5.20;99.90;;;;;;5013261;28;20070;-50
2022/11/18 01:01:33;;;;;;;7.10;4.35;;;5.20;99.90;;;;;;5010753;28;20045;-48
2022/11/18 01:04:00;;;;;;;5.45;3.85;;;5.30;99.90;;;;;;4996692;28;20540;-48
2022/11/18 01:06:27;;;;;;;7.68;4.25;;;5.40;99.90;;;;;;5032287;28;20115;-48
2022/11/18 01:08:54;;;;;;;6.85;4.05;;;5.40;99.90;;;;;;5033099;28;20053;-47
2022/11/18 01:14:05;;;;;;;9.20;4.47;;;5.30;99.90;;;;;;5013179;28;20080;-48
2022/11/18 01:16:32;;;;;;;6.60;3.85;;;5.30;99.90;;;;;;5010831;28;20081;-47
2022/11/18 01:18:59;;;;;;;7.20;3.53;;;5.30;99.90;;;;;;5010213;28;20046;-48
2022/11/18 01:21:27;;;;;;;8.10;4.50;;;5.30;99.90;;;;;;5012150;28;20065;-51
2022/11/18 01:23:54;;;;;;;11.88;5.03;;;5.30;99.90;;;;;;5013017;28;20471;-47
2022/11/18 01:26:21;;;;;;;8.50;4.25;;;5.30;99.90;;;;;;5020142;28;20076;-47
2022/11/18 01:28:48;;;;;;;7.30;4.53;;;5.20;99.90;;;;;;5028629;28;20041;-48
2022/11/18 01:31:18;;;;;;;8.68;5.20;;;5.20;99.90;;;;;;5032700;28;20076;-47
2022/11/18 01:33:45;;;;;;;8.60;4.85;;;5.20;99.90;;;;;;5011504;28;20061;-48
2022/11/18 01:36:18;;;;;;;9.73;5.00;;;5.10;99.90;;;;;;5012084;28;20461;-48
2022/11/18 01:38:45;;;;;;;11.48;5.70;;;5.10;99.90;;;;;;5009385;28;20101;-48
2022/11/18 01:41:12;;;;;;;11.40;5.70;;;5.10;99.90;;;;;;5012276;28;20069;-49
2022/11/18 01:43:54;;;;;;;9.95;5.53;;;5.10;99.90;;;;;;5012330;28;20571;-47
2022/11/18 01:46:23;;;;;;;9.27;5.18;;;5.00;99.90;;;;;;5012337;28;20112;-47
2022/11/18 01:48:54;;;;;;;11.00;5.78;;;5.10;99.90;;;;;;5020833;28;20419;-47
2022/11/18 01:51:28;;;;;;;13.98;7.07;;;5.10;99.90;;;;;;4993142;28;20114;-49
2022/11/18 01:54:08;;;;;;;16.35;8.65;;;5.10;99.90;;;;;;4995155;28;20070;-49
2022/11/18 01:56:43;;;;;;;15.45;7.50;;;5.10;99.90;;;;;;5012318;28;20100;-48
2022/11/18 01:59:13;;;;;;;13.50;7.07;;;5.10;99.90;;;;;;5012712;28;20042;-47
2022/11/18 02:01:40;;;;;;;12.23;6.00;;;5.10;99.90;;;;;;5013339;28;20042;-47
2022/11/18 02:04:08;;;;;;;11.80;6.65;;;5.10;99.90;;;;;;5012573;28;20030;-48
2022/11/18 02:06:35;;;;;;;10.80;5.95;;;5.20;99.90;;;;;;5012040;28;20112;-47
2022/11/18 02:09:03;;;;;;;9.07;5.88;;;5.20;99.90;;;;;;5009968;28;20080;-50
2022/11/18 02:14:24;;;;;;;8.63;5.32;;;5.20;99.90;;;;;;5008233;28;20056;-49
2022/11/18 02:16:54;;;;;;;10.18;6.40;;;5.20;99.90;;;;;;5004563;28;20038;-48
2022/11/18 02:19:50;;;;;;;10.95;6.10;;;5.20;99.90;;;;;;5018143;28;20092;-48
2022/11/18 02:22:54;;;;;;;17.30;6.90;;;5.10;99.90;;;;;;4987746;28;20049;-47
2022/11/18 02:25:29;;;;;;;11.30;6.30;;;5.10;99.90;;;;;;5023695;28;20095;-49
2022/11/18 02:28:26;;;;;;;12.02;6.43;;;5.00;99.90;;;;;;5031951;28;20453;-48
2022/11/18 02:30:58;;;;;;;12.82;6.20;;;5.00;99.90;;;;;;5011985;28;20309;-47
2022/11/18 02:33:56;;;;;;;7.90;5.80;;;5.00;99.90;;;;;;5011228;28;20103;-47
2022/11/18 02:36:38;;;;;;;10.23;5.70;;;5.10;99.90;;;;;;4946867;28;20072;-47
2022/11/18 02:39:12;;;;;;;9.50;5.63;;;5.10;99.90;;;;;;5011360;28;20384;-47
2022/11/18 02:41:41;;;;;;;11.38;5.95;;;5.00;99.90;;;;;;5011294;28;20100;-47
2022/11/18 02:44:19;;;;;;;11.32;5.65;;;5.00;99.90;;;;;;4993079;28;20391;-48
2022/11/18 02:46:48;;;;;;;;;;;5.00;99.90;;;;;;5012107;28;20077;-48
2022/11/18 02:49:18;;;;;;;;;;;5.00;99.90;;;;;;5011581;28;19968;-48
2022/11/18 02:51:47;;;;;;;10.15;5.13;;;5.00;99.90;;;;;;5010862;28;19921;-47
2022/11/18 02:54:16;;;;;;;18.67;5.97;;;5.00;99.90;;;;;;5022195;28;20076;-47
2022/11/18 02:56:45;;;;;;;14.15;5.95;;;5.00;99.90;;;;;;5031472;28;20522;-47
2022/11/18 02:59:17;;;;;;;9.90;5.95;;;5.00;99.90;;;;;;5013531;28;20065;-48
2022/11/18 03:01:44;;;;;;;12.50;6.60;;;5.10;99.90;;;;;;5010067;28;20038;-48
2022/11/18 03:04:13;;;;;;;8.48;5.88;;;5.10;99.90;;;;;;5011262;28;20100;-47
2022/11/18 03:06:44;;;;;;;10.57;5.72;;;5.10;99.90;;;;;;5010545;28;20042;-48
2022/11/18 03:09:17;;;;;;;9.68;5.88;;;5.10;99.90;;;;;;5013039;28;20099;-49
2022/11/18 03:12:06;;;;;;;10.70;6.55;;;5.10;99.90;;;;;;5006454;28;20449;-47
2022/11/18 03:15:05;;;;;;;10.95;5.70;;;5.10;99.90;;;;;;5010375;28;20069;-48
2022/11/18 03:18:17;;;;;;;12.27;6.30;;;5.10;99.90;;;;;;5057570;23;20102;-51
2022/11/18 03:20:54;;;;;;;14.00;6.38;;;5.10;99.90;;;;;;5055248;28;20451;-48
2022/11/18 03:23:30;;;;;;;13.03;5.83;;;5.10;99.90;;;;;;5067590;28;20036;-49
2022/11/18 03:26:06;;;;;;;10.82;6.55;;;5.10;99.90;;;;;;5062732;28;20329;-50
2022/11/18 03:28:44;;;;;;;9.80;5.90;;;5.20;99.90;;;;;;5053232;28;20394;-49
2022/11/18 03:31:19;;;;;;;12.05;5.97;;;5.20;99.90;;;;;;5071190;28;20044;-48
2022/11/18 03:33:53;;;;;;;11.13;6.05;;;5.20;99.90;;;;;;5060295;28;20032;-49
2022/11/18 03:36:23;;;;;;;9.18;5.85;;;5.20;99.90;;;;;;5073396;28;20064;-49
2022/11/18 03:38:53;;;;;;;10.88;6.28;;;5.20;99.90;;;;;;5074067;28;20064;-48
2022/11/18 03:41:22;;;;;;;11.70;6.15;;;5.20;99.90;;;;;;5073624;28;20048;-51
2022/11/18 03:43:58;;;;;;;11.13;5.65;;;5.30;99.90;;;;;;5074435;28;20501;-49
2022/11/18 03:46:53;;;;;;;8.73;5.20;;;5.20;99.90;;;;;;5074579;28;20037;-48
2022/11/18 03:49:29;;;;;;;8.00;4.90;;;5.20;99.90;;;;;;5074902;28;20087;-48
2022/11/18 03:52:02;;;;;;;9.15;5.57;;;5.20;99.90;;;;;;5068302;28;20044;-48
2022/11/18 03:54:32;;;;;;;9.50;4.80;;;5.20;99.90;;;;;;5074824;28;20071;-48
2022/11/18 03:57:08;;;;;;;8.10;4.47;;;5.20;99.90;;;;;;5073743;28;20516;-48
2022/11/18 03:59:41;;;;;;;10.35;5.18;;;5.30;99.90;;;;;;5074678;28;20071;-48
2022/11/18 04:02:15;;;;;;;8.20;4.10;;;5.30;99.90;;;;;;5066266;28;20106;-48
2022/11/18 04:04:46;;;;;;;6.75;4.30;;;5.40;99.90;;;;;;5074474;28;20047;-48
2022/11/18 04:07:40;;;;;;;11.07;5.18;;;5.50;99.90;;;;;;5056271;28;20090;-48
2022/11/18 04:10:16;;;;;;;7.35;4.43;;;5.50;99.90;;;;;;5072937;28;20064;-48
2022/11/18 04:12:50;;;;;;;10.88;4.32;;;5.60;99.90;;;;;;5073912;28;20496;-48
2022/11/18 04:15:17;;;;;;;6.88;3.80;;;5.60;99.90;;;;;;5073286;28;20485;-49
2022/11/18 04:17:44;;;;;;;;;;;5.60;99.90;;;;;;5069303;28;20064;-48
2022/11/18 04:20:19;;;;;;;5.13;3.17;;;5.60;99.90;;;;;;5073694;28;19920;-50
2022/11/18 04:22:46;;;;;;;5.85;3.85;;;5.60;99.90;;;;;;5073679;28;20048;-49
2022/11/18 04:25:13;;;;;;;6.65;3.90;;;5.70;99.90;;;;;;5066364;28;20452;-49
2022/11/18 04:27:40;;;;;;;6.13;3.58;;;5.70;99.90;;;;;;5073685;28;20040;-48
2022/11/18 04:30:07;;;;;;;7.47;4.75;;;5.70;99.90;;;;;;5067935;28;20098;-49
2022/11/18 04:32:34;;;;;;;9.18;4.45;;;5.70;99.90;;;;;;5073332;28;20075;-49
2022/11/18 04:35:01;;;;;;;6.35;4.38;;;5.60;99.90;;;;;;5073119;28;20036;-49
2022/11/18 04:37:28;;;;;;;7.28;4.40;;;5.50;99.90;;;;;;5070547;28;20048;-48
2022/11/18 04:39:55;;;;;;;12.05;5.15;;;5.50;99.90;;;;;;5055832;28;20064;-49
2022/11/18 04:42:21;;;;;;;11.85;4.50;;;5.50;99.90;;;;;;5073447;28;20597;-49
2022/11/18 04:44:48;;;;;;;10.70;4.97;;;5.50;99.90;;;;;;5063239;28;20124;-49
2022/11/18 04:47:15;;;;;;;8.35;5.38;;;5.50;99.90;;;;;;5072371;28;20040;-48
2022/11/18 04:49:42;;;;;;;9.57;5.35;;;5.50;99.90;;;;;;5072136;28;20045;-48
2022/11/18 04:52:08;;;;;;;10.98;5.60;;;5.50;99.90;;;;;;5073346;28;20076;-49
2022/11/18 04:54:35;;;;;;;10.63;5.50;;;5.50;99.90;;;;;;5072275;28;20071;-49
2022/11/18 04:57:02;;;;;;;8.68;5.25;;;5.50;99.90;;;;;;5073356;28;20559;-48
2022/11/18 04:59:29;;;;;;;9.10;5.50;;;5.40;99.90;;;;;;5071825;28;20072;-49
2022/11/18 05:01:58;;;;;;;10.10;5.40;;;5.40;99.90;;;;;;5062878;28;20044;-49
2022/11/18 05:04:27;;;;;;;11.00;5.95;;;5.40;99.90;;;;;;5073016;28;20482;-52
2022/11/18 05:06:54;;;;;;;10.65;6.45;;;5.40;99.90;;;;;;5072156;28;20037;-48
2022/11/18 05:09:21;;;;;;;10.07;5.57;;;5.30;99.90;;;;;;5068266;28;20064;-51
2022/11/18 05:14:39;;;;;;;9.38;5.53;;;5.30;99.90;;;;;;5060003;28;20090;-49
2022/11/18 05:17:13;;;;;;;11.02;5.70;;;5.30;99.90;;;;;;5065185;28;20572;-49
2022/11/18 05:19:40;;;;;;;9.63;5.40;;;5.30;99.90;;;;;;5062689;28;20040;-48
2022/11/18 05:22:07;;;;;;;7.60;4.68;;;5.30;99.90;;;;;;5041126;28;20060;-49
2022/11/18 05:24:34;;;;;;;10.32;4.70;;;5.30;99.90;;;;;;5060714;28;20045;-51
2022/11/18 05:27:00;;;;;;;11.10;5.22;;;5.30;99.90;;;;;;5066423;28;20720;-49
2022/11/18 05:29:27;;;;;;;6.97;4.65;;;5.30;99.90;;;;;;5057554;28;20120;-49
2022/11/18 05:31:54;;;;;;;9.77;4.60;;;5.30;99.90;;;;;;5068594;28;20048;-49
2022/11/18 05:34:21;;;;;;;10.02;4.88;;;5.30;99.90;;;;;;5064398;28;20090;-49
2022/11/18 05:36:48;;;;;;;9.45;5.53;;;5.40;99.90;;;;;;5064236;28;20098;-49
2022/11/18 05:39:14;;;;;;;7.88;5.05;;;5.40;99.90;;;;;;5064843;28;20041;-49
2022/11/18 05:44:27;;;;;;;11.70;5.57;;;5.40;99.90;;;;;;5066233;28;19997;-49
2022/11/18 05:46:55;;;;;;;20.25;8.82;;;4.40;99.90;;;;;;5062395;28;20041;-49
2022/11/18 05:49:22;;;;;;;14.18;7.15;;;5.40;99.90;;;;;;5061160;28;20068;-49
2022/11/18 05:51:49;;;;;;;10.98;5.93;;;5.40;99.90;;;;;;5069507;28;20040;-49
2022/11/18 05:54:18;;;;;;;11.63;4.75;;;5.50;99.90;;;;;;5069404;28;20098;-49
2022/11/18 05:56:45;;;;;;;6.53;4.13;;;5.40;99.90;;;;;;5065832;28;20049;-48
2022/11/18 05:59:13;;;;;;;5.93;4.07;;;5.40;99.90;;;;;;5069879;28;20068;-49
2022/11/18 06:01:45;;;;;;;3.75;3.03;;;5.40;99.90;;;;;;5064673;28;20064;-49
2022/11/18 06:04:38;;;;;;;5.25;2.95;;;5.30;99.90;;;;;;5071604;28;20102;-49
2022/11/18 06:07:25;;;;;;;5.57;2.83;;;5.40;99.90;;;;;;5051334;28;20450;-48
2022/11/18 06:10:33;;;;;;;5.95;3.55;;;5.40;99.90;;;;;;5061959;28;20044;-49
2022/11/18 06:13:03;;;;;;;6.45;3.60;;;5.40;99.90;;;;;;5043948;28;20053;-48
2022/11/18 06:15:34;;;;;;;5.20;2.80;;;5.40;99.90;;;;;;5054360;28;20080;-49
2022/11/18 06:18:27;;;;;;;5.13;2.85;;;5.40;99.90;;;;;;5059055;28;20048;-48
2022/11/18 06:21:03;;;;;;;5.72;3.88;;;5.20;99.90;;;;;;5067048;28;20096;-49
2022/11/18 06:23:34;;;;;;;5.32;3.80;;;5.10;99.90;;;;;;5061454;28;20420;-48
2022/11/18 06:26:02;;;;;;;6.63;3.75;;;5.10;99.90;;;;;;5071711;28;20041;-48
2022/11/18 06:28:29;;;;;;;7.88;3.47;;;5.20;99.90;;;;;;5071105;28;20041;-48
2022/11/18 06:30:57;;;;;;;;;;;5.30;99.90;;;;;;5052693;28;20469;-48
2022/11/18 06:33:24;;;;;;;5.25;3.22;;;5.40;99.90;;;;;;5071700;28;19924;-49
2022/11/18 06:35:51;;;;;;;9.32;4.78;;;5.40;99.90;;;;;;5070984;28;20403;-49
2022/11/18 06:38:18;;;;;;;10.35;5.00;;;5.30;99.90;;;;;;5066112;28;20044;-48
2022/11/18 06:40:44;;;;;;;8.80;4.55;;;5.30;99.90;;;;;;5071716;28;20397;-48
2022/11/18 06:48:47;;;;;;;7.75;4.00;;;5.30;99.90;;;;;;5063630;28;20044;-48
2022/11/18 06:51:14;;;;;;;;;;;5.40;99.90;;;;;;5071829;28;20449;-48
2022/11/18 06:53:41;;;;;;;11.15;5.28;;;5.40;99.90;;;;;;5064686;28;19966;-49
2022/11/18 06:56:13;;;;;;;9.77;4.93;;;5.40;99.90;;;;;;5068003;28;20071;-48
2022/11/18 06:58:40;;;;;;;9.38;5.15;;;5.40;99.90;;;;;;5069216;28;20455;-48
2022/11/18 07:01:13;;;;;;;7.30;4.47;;;5.40;99.90;;;;;;5063721;28;20041;-48
2022/11/18 07:03:42;;;;;;;7.18;4.93;;;5.50;99.90;;;;;;5069550;28;20112;-48
2022/11/18 07:06:12;;;;;;;8.73;5.10;;;5.50;99.90;;;;;;5069524;28;20407;-48
2022/11/18 07:08:40;;;;;;;11.68;7.32;;;5.50;99.90;;;;;;5068432;28;20132;-49
2022/11/18 07:11:09;;;;;;;13.32;7.85;;;5.60;99.90;;;;;;5061820;28;20075;-48
2022/11/18 07:13:37;;;;;;;12.30;7.95;;;5.60;99.90;;;;;;5070567;28;20083;-48
2022/11/18 07:16:15;;;;;;;16.98;7.10;;;5.60;99.90;;;;;;5070906;28;20052;-48
2022/11/18 07:18:43;;;;;;;13.77;6.38;;;5.70;99.90;;;;;;5064550;28;20040;-48
2022/11/18 07:21:13;;;;;;;15.73;6.90;;;5.70;99.90;;;;;;5070303;28;20068;-48
2022/11/18 07:23:40;;;;;;;38.13;19.20;;;5.70;99.90;;;;;;5070327;28;20076;-49
2022/11/18 07:26:07;;;;;;;24.33;12.52;;;5.80;99.90;;;;;;5065069;28;20504;-49
2022/11/18 07:28:34;;;;;;;13.38;6.75;;;5.80;99.90;;;;;;5071147;28;20074;-49
2022/11/18 07:31:06;;;;;;;15.50;7.20;;;5.70;99.90;;;;;;5070840;28;20110;-48
2022/11/18 07:33:34;;;;;;;9.32;5.78;;;5.80;99.90;;;;;;5070963;28;20458;-49
2022/11/18 07:36:07;;;;;;;11.07;6.18;;;5.80;99.90;;;;;;5060312;28;20057;-49
2022/11/18 07:38:34;;;;;;;12.23;6.97;;;5.80;99.90;;;;;;5067211;28;20469;-50
2022/11/18 07:41:05;;;;;;;11.75;6.60;;;5.80;99.90;;;;;;5068027;28;20543;-49
2022/11/18 07:43:33;;;;;;;14.60;6.15;;;5.80;99.90;;;;;;5069473;28;20048;-48
2022/11/18 07:46:16;;;;;;;11.88;6.70;;;5.80;99.90;;;;;;5070785;28;20113;-48
2022/11/18 07:48:45;;;;;;;10.73;6.03;;;5.90;99.90;;;;;;5067838;28;20393;-48
2022/11/18 07:51:13;;;;;;;14.60;7.10;;;5.90;99.90;;;;;;5070579;28;20492;-48
2022/11/18 07:53:39;;;;;;;11.57;6.60;;;5.10;99.90;;;;;;5066241;28;20489;-48
2022/11/18 07:56:07;;;;;;;12.15;6.75;;;5.90;99.90;;;;;;5068583;28;20049;-48
2022/11/18 07:58:34;;;;;;;;;;;5.90;99.90;;;;;;5068418;28;20060;-48
2022/11/18 08:01:08;;;;;;;16.77;9.25;;;5.90;99.90;;;;;;5052580;28;20380;-49
2022/11/18 08:03:35;;;;;;;20.23;10.63;;;5.90;99.90;;;;;;5069462;28;20123;-49
2022/11/18 08:06:03;;;;;;;12.70;7.43;;;6.00;99.90;;;;;;5070460;28;20082;-48
2022/11/18 08:08:30;;;;;;;13.50;7.63;;;6.00;99.90;;;;;;5048255;28;20446;-52
2022/11/18 08:10:59;;;;;;;9.70;5.93;;;6.00;99.90;;;;;;5070584;28;20048;-50
2022/11/18 08:13:27;;;;;;;11.98;6.50;;;6.10;99.90;;;;;;5069880;28;20063;-48
2022/11/18 08:15:54;;;;;;;10.75;6.68;;;6.10;99.90;;;;;;5066165;28;20048;-49
2022/11/18 08:18:21;;;;;;;;;;;6.00;99.90;;;;;;5070886;28;20040;-48
2022/11/18 08:20:48;;;;;;;14.30;8.05;;;6.10;99.90;;;;;;5070842;28;19951;-48
2022/11/18 08:23:16;;;;;;;10.18;7.03;;;6.10;99.90;;;;;;5064702;28;20048;-49
2022/11/18 08:25:44;;;;;;;10.38;6.65;;;6.10;99.90;;;;;;5073968;28;20102;-48
2022/11/18 08:28:12;;;;;;;11.13;7.15;;;6.10;99.90;;;;;;5073387;28;20122;-49
2022/11/18 08:30:39;;;;;;;16.08;8.65;;;6.20;99.90;;;;;;5069662;28;20053;-49
2022/11/18 08:33:06;;;;;;;19.48;9.10;;;6.20;99.90;;;;;;5073003;28;20324;-48
2022/11/18 08:35:33;;;;;;;19.10;9.43;;;6.30;99.90;;;;;;5073428;28;20489;-48
2022/11/18 08:38:00;;;;;;;13.90;8.05;;;6.30;99.90;;;;;;5066958;28;20036;-48
2022/11/18 08:40:26;;;;;;;12.40;6.85;;;6.30;99.90;;;;;;5054746;28;20450;-48
2022/11/18 08:42:53;;;;;;;13.35;7.00;;;6.30;99.90;;;;;;5069196;28;20064;-49
2022/11/18 08:45:20;;;;;;;13.05;7.03;;;6.30;99.90;;;;;;5073519;28;20045;-48
2022/11/18 08:47:46;;;;;;;18.75;9.57;;;6.30;99.90;;;;;;5073499;28;20044;-48
2022/11/18 08:50:13;;;;;;;17.42;9.52;;;6.30;99.90;;;;;;5071558;28;20041;-48
2022/11/18 08:52:40;;;;;;;18.50;8.82;;;6.30;99.90;;;;;;5073225;28;20460;-49
2022/11/18 08:55:07;;;;;;;19.42;9.80;;;6.30;99.90;;;;;;5073160;28;20571;-49
2022/11/18 08:57:34;;;;;;;18.90;8.27;;;6.40;99.90;;;;;;5066383;28;20048;-48
2022/11/18 09:00:01;;;;;;;14.18;7.82;;;6.40;99.90;;;;;;5073418;28;20044;-48
2022/11/18 09:02:27;;;;;;;11.55;7.32;;;6.40;99.90;;;;;;5065630;28;20098;-49
2022/11/18 09:04:54;;;;;;;14.77;6.82;;;6.50;99.90;;;;;;5072493;28;20040;-49
2022/11/18 09:07:21;;;;;;;30.67;15.93;;;6.50;99.90;;;;;;5072906;28;20041;-48
2022/11/18 09:09:49;;;;;;;18.45;9.77;;;6.50;99.90;;;;;;5071528;28;20036;-48
2022/11/18 09:12:16;;;;;;;29.08;11.88;;;6.40;99.90;;;;;;5072678;28;20102;-48
2022/11/18 09:14:44;;;;;;;19.10;9.80;;;6.40;99.90;;;;;;5073372;28;20413;-48
2022/11/18 09:17:49;;;;;;;13.47;7.03;;;6.50;99.90;;;;;;5074233;22;20047;-49
2022/11/18 09:20:41;;;;;;;14.80;7.88;;;6.50;99.90;;;;;;5067559;28;20041;-50
2022/11/18 09:23:07;;;;;;;15.45;9.20;;;6.60;99.90;;;;;;5063663;28;20079;-48
2022/11/18 09:25:34;;;;;;;21.02;10.05;;;6.70;99.90;;;;;;5059267;28;20045;-47
2022/11/18 09:28:01;;;;;;;29.50;12.68;;;6.80;99.90;;;;;;5053587;28;20578;-48
2022/11/18 09:30:27;;;;;;;35.60;14.25;;;6.90;99.90;;;;;;5051376;28;20049;-47
2022/11/18 09:32:54;;;;;;;36.83;13.50;;;6.90;99.90;;;;;;5051484;28;20068;-49
2022/11/18 09:35:21;;;;;;;42.63;15.52;;;7.00;99.90;;;;;;5052613;28;20068;-48
2022/11/18 09:37:47;;;;;;;22.60;10.02;;;7.10;99.90;;;;;;5047937;28;20087;-47
2022/11/18 09:40:17;;;;;;;16.60;8.23;;;7.00;99.90;;;;;;5041477;28;20069;-49
2022/11/18 09:42:55;;;;;;;59.20;23.75;;;7.00;99.90;;;;;;5031615;28;20065;-48
2022/11/18 09:45:40;;;;;;;29.65;14.35;;;7.00;99.90;;;;;;5044187;28;20048;-49
2022/11/18 09:48:16;;;;;;;33.65;14.93;;;7.00;99.90;;;;;;5052443;28;20440;-47
2022/11/18 09:50:43;;;;;;;51.80;17.33;;;7.00;99.90;;;;;;5052503;28;20079;-48
2022/11/18 09:53:21;;;;;;;21.73;10.63;;;7.10;99.90;;;;;;5048751;28;20045;-51
2022/11/18 09:55:50;;;;;;;16.40;9.18;;;7.10;99.90;;;;;;5049745;28;20459;-48
2022/11/18 09:58:34;;;;;;;11.82;7.13;;;7.10;99.90;;;;;;5051573;28;20072;-50
2022/11/18 10:01:03;;;;;;;12.07;7.50;;;7.10;99.90;;;;;;5045707;28;20040;-47
2022/11/18 10:03:31;;;;;;;12.75;7.20;;;7.00;99.90;;;;;;5050451;28;20102;-49
2022/11/18 10:06:08;;;;;;;11.32;6.32;;;7.10;99.90;;;;;;5047706;28;20106;-48
2022/11/18 10:09:04;;;;;;;14.40;8.35;;;7.30;99.90;;;;;;5051497;28;20098;-47
2022/11/18 10:12:03;;;;;;;12.30;7.22;;;7.40;99.90;;;;;;5045909;28;20041;-48
2022/11/18 10:14:49;;;;;;;;;;;7.50;99.90;;;;;;5051573;28;20057;-45
2022/11/18 10:17:18;;;;;;;13.07;7.63;;;7.70;99.90;;;;;;5034622;28;19948;-48
2022/11/18 10:19:55;;;;;;;12.15;7.72;;;7.80;99.90;;;;;;5046620;28;20045;-50
2022/11/18 10:22:40;;;;;;;12.27;7.20;;;7.90;99.90;;;;;;5025652;28;20055;-51
2022/11/18 10:25:17;;;;;;;12.63;6.82;;;7.90;99.90;;;;;;5038972;28;20045;-48
2022/11/18 10:27:46;;;;;;;10.65;6.55;;;8.00;99.90;;;;;;5046667;28;20528;-48
2022/11/18 10:30:18;;;;;;;14.25;7.03;;;7.80;99.90;;;;;;5047173;28;20049;-47
2022/11/18 10:32:59;;;;;;;14.15;7.70;;;7.70;99.90;;;;;;5051087;28;20041;-48
2022/11/18 10:35:37;;;;;;;14.68;7.55;;;7.70;99.90;;;;;;5050919;28;20049;-48
2022/11/18 10:38:12;;;;;;;14.27;7.75;;;7.80;99.90;;;;;;5047345;28;20041;-48
2022/11/18 10:40:55;;;;;;;14.40;8.30;;;7.90;99.90;;;;;;5037237;28;20042;-48
2022/11/18 10:43:49;;;;;;;14.52;8.10;;;8.00;99.90;;;;;;5042216;28;20068;-47
2022/11/18 10:46:16;;;;;;;17.90;8.50;;;8.20;99.90;;;;;;5051171;28;20049;-47
2022/11/18 10:48:42;;;;;;;15.98;9.23;;;8.20;99.90;;;;;;5051435;28;20543;-47
2022/11/18 10:51:23;;;;;;;14.48;7.85;;;8.20;99.90;;;;;;5046711;28;20049;-47
2022/11/18 10:53:50;;;;;;;19.95;9.57;;;8.10;99.90;;;;;;5043802;28;20460;-47
2022/11/18 10:56:17;;;;;;;17.73;8.98;;;8.10;99.90;;;;;;5031243;28;20041;-48
2022/11/18 10:58:50;;;;;;;11.38;7.55;;;8.20;99.90;;;;;;5045522;28;20045;-48
2022/11/18 11:01:23;;;;;;;10.93;7.63;;;8.20;99.90;;;;;;5050450;28;20040;-48
2022/11/18 11:03:58;;;;;;;13.65;7.45;;;8.20;99.90;;;;;;5046702;28;20076;-47
2022/11/18 11:06:31;;;;;;;11.90;7.65;;;8.10;99.90;;;;;;5050605;28;20103;-47
2022/11/18 11:08:59;;;;;;;14.85;6.93;;;8.00;99.90;;;;;;5050964;28;20045;-48
2022/11/18 11:11:32;;;;;;;12.68;7.60;;;8.00;99.90;;;;;;5047389;28;20035;-47
2022/11/18 11:14:06;;;;;;;11.65;7.72;;;7.90;99.90;;;;;;5042614;28;20122;-49
2022/11/18 11:16:56;;;;;;;14.32;7.50;;;7.90;99.90;;;;;;5030081;28;20071;-49
2022/11/18 11:19:29;;;;;;;16.67;9.45;;;8.10;99.90;;;;;;5042959;28;20045;-47
2022/11/18 11:21:56;;;;;;;13.20;7.85;;;8.20;99.90;;;;;;5050279;28;20045;-48
2022/11/18 11:24:26;;;;;;;14.32;7.78;;;8.20;99.90;;;;;;5051074;28;20049;-47
2022/11/18 11:27:14;;;;;;;11.07;7.70;;;8.10;99.90;;;;;;5046849;28;20063;-50
2022/11/18 11:30:08;;;;;;;12.65;6.47;;;8.20;99.90;;;;;;5047470;28;20041;-49
2022/11/18 11:32:48;;;;;;;9.82;6.30;;;8.30;99.90;;;;;;5049911;28;20493;-48
2022/11/18 11:35:24;;;;;;;12.45;6.88;;;8.40;99.90;;;;;;5048294;28;20123;-49
2022/11/18 11:37:59;;;;;;;14.82;7.60;;;8.40;99.90;;;;;;5048881;28;20044;-48
2022/11/18 11:40:29;;;;;;;12.45;7.60;;;8.40;99.90;;;;;;5031182;28;20041;-47
2022/11/18 11:43:20;;;;;;;15.98;8.55;;;8.40;99.90;;;;;;5049136;28;20548;-47
2022/11/18 11:46:26;;;;;;;14.00;8.13;;;8.50;99.90;;;;;;5045792;28;20110;-48
2022/11/18 11:49:39;;;;;;;13.38;7.32;;;8.50;99.90;;;;;;5049403;28;20059;-48
2022/11/18 11:52:15;;;;;;;9.35;5.93;;;8.30;99.90;;;;;;5050280;28;20468;-48
2022/11/18 11:54:53;;;;;;;11.27;6.55;;;8.30;99.90;;;;;;5054951;28;20107;-47
2022/11/18 11:58:08;;;;;;;12.43;6.20;;;8.30;99.90;;;;;;5072677;28;20106;-52
2022/11/18 12:00:44;;;;;;;13.63;7.57;;;8.30;99.90;;;;;;5035299;28;20566;-48
2022/11/18 12:03:48;;;;;;;12.45;6.40;;;8.30;99.90;;;;;;5066333;28;20044;-49
2022/11/18 12:06:18;;;;;;;10.13;6.00;;;8.30;99.90;;;;;;5035737;28;20518;-48
2022/11/18 12:09:01;;;;;;;14.75;6.03;;;8.20;99.90;;;;;;5061131;28;20099;-50
2022/11/18 12:11:41;;;;;;;10.43;6.85;;;8.20;99.90;;;;;;5051229;28;20390;-47
2022/11/18 12:14:29;;;;;;;11.10;7.00;;;8.20;99.90;;;;;;5062498;28;20036;-48
2022/11/18 12:17:05;;;;;;;11.05;6.40;;;8.30;99.90;;;;;;5066706;28;20048;-47
2022/11/18 12:19:37;;;;;;;11.32;7.15;;;8.20;99.90;;;;;;5066351;28;20044;-48
2022/11/18 12:22:05;;;;;;;12.77;7.18;;;8.20;99.90;;;;;;5061596;28;20080;-49
2022/11/18 12:24:42;;;;;;;9.73;5.57;;;8.30;99.90;;;;;;5068952;28;20115;-48
2022/11/18 12:27:13;;;;;;;12.60;6.93;;;8.30;99.90;;;;;;5068846;28;20040;-45
2022/11/18 12:29:50;;;;;;;12.23;7.57;;;8.30;99.90;;;;;;5062522;28;20033;-48
2022/11/18 12:32:40;;;;;;;13.73;7.18;;;8.40;99.90;;;;;;5052078;28;20564;-48
2022/11/18 12:35:10;;;;;;;12.60;7.05;;;8.50;99.90;;;;;;5062585;28;20068;-49
2022/11/18 12:37:52;;;;;;;11.32;6.55;;;8.50;99.90;;;;;;5064355;28;20080;-48
2022/11/18 12:40:39;;;;;;;15.23;8.25;;;8.40;99.90;;;;;;5053781;28;20444;-48
2022/11/18 12:43:47;;;;;;;16.85;8.23;;;8.40;99.90;;;;;;5063493;28;20071;-49
2022/11/18 12:46:38;;;;;;;8.93;5.40;;;8.30;99.90;;;;;;5060607;28;20103;-48
2022/11/18 12:49:20;;;;;;;8.50;4.25;;;8.30;99.90;;;;;;5052244;28;20033;-47
2022/11/18 12:51:48;;;;;;;11.38;5.30;;;8.30;99.90;;;;;;5061155;28;20041;-48
2022/11/18 12:54:29;;;;;;;8.80;5.22;;;8.20;99.90;;;;;;5068906;28;20443;-47
2022/11/18 12:57:03;;;;;;;7.60;4.95;;;8.20;99.90;;;;;;5061885;28;20083;-48
2022/11/18 12:59:36;;;;;;;8.15;4.90;;;8.20;99.90;;;;;;5067096;28;20040;-48
2022/11/18 13:02:49;;;;;;;12.23;6.13;;;8.20;99.90;;;;;;5060742;28;20036;-48
2022/11/18 13:05:22;;;;;;;10.18;6.32;;;8.20;99.90;;;;;;4968741;28;20404;-47
2022/11/18 13:08:12;;;;;;;14.73;7.22;;;8.20;99.90;;;;;;4983791;28;20054;-49
2022/11/18 13:10:51;;;;;;;14.05;6.18;;;8.20;99.90;;;;;;5044091;28;20098;-48
2022/11/18 13:13:32;;;;;;;8.88;5.35;;;8.20;99.90;;;;;;5066432;28;20063;-47
2022/11/18 13:19:07;;;;;;;6.78;4.40;;;8.10;99.90;;;;;;5052794;28;20087;-47
2022/11/18 13:24:21;;;;;;;8.05;5.22;;;8.10;99.90;;;;;;5041763;28;20095;-48
2022/11/18 13:26:54;;;;;;;10.23;5.50;;;8.10;99.90;;;;;;5050984;28;20594;-48
2022/11/18 13:29:32;;;;;;;11.18;5.22;;;8.10;99.90;;;;;;5048496;28;20125;-48
2022/11/18 13:32:19;;;;;;;8.88;5.05;;;8.10;99.90;;;;;;5050437;28;20095;-47
2022/11/18 13:34:49;;;;;;;9.23;5.43;;;8.20;99.90;;;;;;5050660;28;20044;-47
2022/11/18 13:37:30;;;;;;;7.20;4.63;;;8.20;99.90;;;;;;5048005;28;20509;-48
2022/11/18 13:39:57;;;;;;;5.72;4.57;;;8.30;99.90;;;;;;5052341;28;20065;-48
2022/11/18 13:42:26;;;;;;;7.45;4.90;;;8.20;99.90;;;;;;5051490;28;20041;-47
2022/11/18 13:44:57;;;;;;;9.50;4.38;;;8.20;99.90;;;;;;5044803;28;20064;-48
2022/11/18 13:47:48;;;;;;;8.23;5.30;;;8.20;99.90;;;;;;5044416;28;20102;-48
2022/11/18 13:50:26;;;;;;;8.35;4.70;;;8.20;99.90;;;;;;5052168;28;20037;-47